sensor_id;sensor_type;location;lat;lon;timestamp;P1;durP1;ratioP1;P2;durP2;ratioP2
12112;SDS011;6120;52.250;8.478;2024-01-10T00:00:38;11.50;;;4.85;;
12112;SDS011;6120;52.250;8.478;2024-01-10T00:03:05;11.07;;;4.40;;
12112;SDS011;6120;52.250;8.478;2024-01-10T00:05:32;9.63;;;4.30;;
12112;SDS011;6120;52.250;8.478;2024-01-10T00:07:59;10.00;;;4.72;;
12112;SDS011;6120;52.250;8.478;2024-01-10T00:10:25;10.90;;;4.28;;
12112;SDS011;6120;52.250;8.478;2024-01-10T00:12:52;13.48;;;5.18;;
12112;SDS011;6120;52.250;8.478;2024-01-10T00:15:19;14.02;;;4.45;;
12112;SDS011;6120;52.250;8.478;2024-01-10T00:17:45;11.43;;;4.85;;
12112;SDS011;6120;52.250;8.478;2024-01-10T00:20:12;12.00;;;5.20;;
12112;SDS011;6120;52.250;8.478;2024-01-10T00:22:39;11.20;;;4.60;;
12112;SDS011;6120;52.250;8.478;2024-01-10T00:25:06;10.15;;;4.53;;
12112;SDS011;6120;52.250;8.478;2024-01-10T00:27:33;10.15;;;4.60;;
12112;SDS011;6120;52.250;8.478;2024-01-10T00:30:00;13.00;;;4.80;;
12112;SDS011;6120;52.250;8.478;2024-01-10T00:32:26;12.02;;;4.70;;
12112;SDS011;6120;52.250;8.478;2024-01-10T00:34:53;12.00;;;4.22;;
12112;SDS011;6120;52.250;8.478;2024-01-10T00:37:20;13.55;;;5.45;;
12112;SDS011;6120;52.250;8.478;2024-01-10T00:39:47;9.82;;;4.40;;
12112;SDS011;6120;52.250;8.478;2024-01-10T00:42:13;12.18;;;4.97;;
12112;SDS011;6120;52.250;8.478;2024-01-10T00:44:40;10.10;;;4.28;;
12112;SDS011;6120;52.250;8.478;2024-01-10T00:47:07;11.43;;;4.63;;
12112;SDS011;6120;52.250;8.478;2024-01-10T00:49:34;14.85;;;4.45;;
12112;SDS011;6120;52.250;8.478;2024-01-10T00:52:00;12.23;;;4.65;;
12112;SDS011;6120;52.250;8.478;2024-01-10T00:54:27;12.35;;;4.93;;
12112;SDS011;6120;52.250;8.478;2024-01-10T00:56:54;11.18;;;5.25;;
12112;SDS011;6120;52.250;8.478;2024-01-10T00:59:20;10.50;;;4.85;;
12112;SDS011;6120;52.250;8.478;2024-01-10T01:01:47;11.52;;;4.78;;
12112;SDS011;6120;52.250;8.478;2024-01-10T01:04:14;12.18;;;4.78;;
12112;SDS011;6120;52.250;8.478;2024-01-10T01:06:41;9.05;;;4.32;;
12112;SDS011;6120;52.250;8.478;2024-01-10T01:09:07;10.32;;;4.85;;
12112;SDS011;6120;52.250;8.478;2024-01-10T01:11:34;12.48;;;4.72;;
12112;SDS011;6120;52.250;8.478;2024-01-10T01:14:01;11.77;;;5.10;;
12112;SDS011;6120;52.250;8.478;2024-01-10T01:16:27;11.25;;;4.32;;
12112;SDS011;6120;52.250;8.478;2024-01-10T01:18:54;10.57;;;4.32;;
12112;SDS011;6120;52.250;8.478;2024-01-10T01:21:21;12.77;;;5.05;;
12112;SDS011;6120;52.250;8.478;2024-01-10T01:23:47;10.85;;;4.50;;
12112;SDS011;6120;52.250;8.478;2024-01-10T01:26:14;11.05;;;4.75;;
12112;SDS011;6120;52.250;8.478;2024-01-10T01:28:41;9.02;;;4.30;;
12112;SDS011;6120;52.250;8.478;2024-01-10T01:31:08;10.35;;;4.82;;
12112;SDS011;6120;52.250;8.478;2024-01-10T01:33:35;10.90;;;4.53;;
12112;SDS011;6120;52.250;8.478;2024-01-10T01:36:02;9.17;;;4.43;;
12112;SDS011;6120;52.250;8.478;2024-01-10T01:38:29;12.73;;;4.90;;
12112;SDS011;6120;52.250;8.478;2024-01-10T01:40:56;10.57;;;4.70;;
12112;SDS011;6120;52.250;8.478;2024-01-10T01:43:23;12.32;;;4.53;;
12112;SDS011;6120;52.250;8.478;2024-01-10T01:45:52;11.20;;;4.20;;
12112;SDS011;6120;52.250;8.478;2024-01-10T01:48:20;12.75;;;4.95;;
12112;SDS011;6120;52.250;8.478;2024-01-10T01:50:53;13.48;;;5.00;;
12112;SDS011;6120;52.250;8.478;2024-01-10T01:53:22;9.95;;;4.45;;
12112;SDS011;6120;52.250;8.478;2024-01-10T01:55:50;13.40;;;4.32;;
12112;SDS011;6120;52.250;8.478;2024-01-10T01:58:16;15.50;;;5.35;;
12112;SDS011;6120;52.250;8.478;2024-01-10T02:00:43;12.63;;;4.47;;
12112;SDS011;6120;52.250;8.478;2024-01-10T02:03:10;11.85;;;4.53;;
12112;SDS011;6120;52.250;8.478;2024-01-10T02:05:37;9.65;;;4.22;;
12112;SDS011;6120;52.250;8.478;2024-01-10T02:08:04;11.35;;;5.32;;
12112;SDS011;6120;52.250;8.478;2024-01-10T02:10:32;8.52;;;4.00;;
12112;SDS011;6120;52.250;8.478;2024-01-10T02:13:00;13.50;;;5.50;;
12112;SDS011;6120;52.250;8.478;2024-01-10T02:15:27;11.95;;;4.90;;
12112;SDS011;6120;52.250;8.478;2024-01-10T02:17:54;12.70;;;5.43;;
12112;SDS011;6120;52.250;8.478;2024-01-10T02:20:21;11.73;;;5.00;;
12112;SDS011;6120;52.250;8.478;2024-01-10T02:22:48;13.05;;;4.95;;
12112;SDS011;6120;52.250;8.478;2024-01-10T02:25:17;13.43;;;5.45;;
12112;SDS011;6120;52.250;8.478;2024-01-10T02:27:44;16.00;;;5.55;;
12112;SDS011;6120;52.250;8.478;2024-01-10T02:30:11;12.57;;;5.38;;
12112;SDS011;6120;52.250;8.478;2024-01-10T02:32:38;14.70;;;5.35;;
12112;SDS011;6120;52.250;8.478;2024-01-10T02:35:05;12.27;;;5.53;;
12112;SDS011;6120;52.250;8.478;2024-01-10T02:37:32;11.27;;;5.07;;
12112;SDS011;6120;52.250;8.478;2024-01-10T02:39:59;9.15;;;4.45;;
12112;SDS011;6120;52.250;8.478;2024-01-10T02:42:27;11.18;;;4.70;;
12112;SDS011;6120;52.250;8.478;2024-01-10T02:44:54;11.80;;;5.13;;
12112;SDS011;6120;52.250;8.478;2024-01-10T02:47:21;10.00;;;4.50;;
12112;SDS011;6120;52.250;8.478;2024-01-10T02:49:48;12.88;;;4.90;;
12112;SDS011;6120;52.250;8.478;2024-01-10T02:52:15;13.38;;;5.22;;
12112;SDS011;6120;52.250;8.478;2024-01-10T02:54:42;15.38;;;4.93;;
12112;SDS011;6120;52.250;8.478;2024-01-10T02:57:08;12.57;;;4.90;;
12112;SDS011;6120;52.250;8.478;2024-01-10T02:59:35;10.75;;;5.13;;
12112;SDS011;6120;52.250;8.478;2024-01-10T03:02:02;19.63;;;5.93;;
12112;SDS011;6120;52.250;8.478;2024-01-10T03:04:28;16.85;;;5.47;;
12112;SDS011;6120;52.250;8.478;2024-01-10T03:06:55;11.93;;;5.72;;
12112;SDS011;6120;52.250;8.478;2024-01-10T03:09:22;11.68;;;5.65;;
12112;SDS011;6120;52.250;8.478;2024-01-10T03:11:49;13.53;;;5.73;;
12112;SDS011;6120;52.250;8.478;2024-01-10T03:14:16;14.02;;;6.00;;
12112;SDS011;6120;52.250;8.478;2024-01-10T03:16:42;14.05;;;5.68;;
12112;SDS011;6120;52.250;8.478;2024-01-10T03:19:09;15.77;;;6.00;;
12112;SDS011;6120;52.250;8.478;2024-01-10T03:21:36;12.90;;;5.35;;
12112;SDS011;6120;52.250;8.478;2024-01-10T03:24:03;16.67;;;6.68;;
12112;SDS011;6120;52.250;8.478;2024-01-10T03:26:30;13.13;;;5.75;;
12112;SDS011;6120;52.250;8.478;2024-01-10T03:28:57;15.73;;;6.55;;
12112;SDS011;6120;52.250;8.478;2024-01-10T03:31:24;18.65;;;6.63;;
12112;SDS011;6120;52.250;8.478;2024-01-10T03:33:50;13.30;;;6.10;;
12112;SDS011;6120;52.250;8.478;2024-01-10T03:36:17;15.60;;;6.88;;
12112;SDS011;6120;52.250;8.478;2024-01-10T03:38:44;15.32;;;6.03;;
12112;SDS011;6120;52.250;8.478;2024-01-10T03:41:15;15.70;;;6.18;;
12112;SDS011;6120;52.250;8.478;2024-01-10T03:43:42;15.85;;;5.47;;
12112;SDS011;6120;52.250;8.478;2024-01-10T03:46:10;12.45;;;5.43;;
12112;SDS011;6120;52.250;8.478;2024-01-10T03:48:37;18.60;;;7.15;;
12112;SDS011;6120;52.250;8.478;2024-01-10T03:51:07;20.08;;;7.70;;
12112;SDS011;6120;52.250;8.478;2024-01-10T03:53:33;17.63;;;6.63;;
12112;SDS011;6120;52.250;8.478;2024-01-10T03:56:03;13.75;;;6.40;;
12112;SDS011;6120;52.250;8.478;2024-01-10T03:58:31;16.58;;;6.30;;
12112;SDS011;6120;52.250;8.478;2024-01-10T04:00:57;15.43;;;6.40;;
12112;SDS011;6120;52.250;8.478;2024-01-10T04:03:24;17.35;;;6.80;;
12112;SDS011;6120;52.250;8.478;2024-01-10T04:05:51;12.63;;;5.97;;
12112;SDS011;6120;52.250;8.478;2024-01-10T04:08:18;14.55;;;6.40;;
12112;SDS011;6120;52.250;8.478;2024-01-10T04:10:45;15.65;;;6.68;;
12112;SDS011;6120;52.250;8.478;2024-01-10T04:13:11;18.27;;;7.13;;
12112;SDS011;6120;52.250;8.478;2024-01-10T04:15:38;19.05;;;7.10;;
12112;SDS011;6120;52.250;8.478;2024-01-10T04:18:05;20.70;;;7.40;;
12112;SDS011;6120;52.250;8.478;2024-01-10T04:20:32;16.92;;;7.10;;
12112;SDS011;6120;52.250;8.478;2024-01-10T04:22:59;22.20;;;7.43;;
12112;SDS011;6120;52.250;8.478;2024-01-10T04:25:25;15.85;;;6.90;;
12112;SDS011;6120;52.250;8.478;2024-01-10T04:27:52;18.23;;;7.80;;
12112;SDS011;6120;52.250;8.478;2024-01-10T04:30:19;18.83;;;7.13;;
12112;SDS011;6120;52.250;8.478;2024-01-10T04:32:46;16.90;;;7.57;;
12112;SDS011;6120;52.250;8.478;2024-01-10T04:35:12;18.50;;;7.28;;
12112;SDS011;6120;52.250;8.478;2024-01-10T04:37:39;15.82;;;8.00;;
12112;SDS011;6120;52.250;8.478;2024-01-10T04:40:06;20.90;;;7.65;;
12112;SDS011;6120;52.250;8.478;2024-01-10T04:42:34;16.20;;;7.47;;
12112;SDS011;6120;52.250;8.478;2024-01-10T04:45:01;17.00;;;7.10;;
12112;SDS011;6120;52.250;8.478;2024-01-10T04:47:28;22.17;;;8.10;;
12112;SDS011;6120;52.250;8.478;2024-01-10T04:49:55;21.58;;;8.43;;
12112;SDS011;6120;52.250;8.478;2024-01-10T04:52:22;18.05;;;7.82;;
12112;SDS011;6120;52.250;8.478;2024-01-10T04:54:48;18.42;;;7.93;;
12112;SDS011;6120;52.250;8.478;2024-01-10T04:57:16;20.13;;;8.32;;
12112;SDS011;6120;52.250;8.478;2024-01-10T04:59:42;20.38;;;7.82;;
12112;SDS011;6120;52.250;8.478;2024-01-10T05:02:09;20.90;;;8.20;;
12112;SDS011;6120;52.250;8.478;2024-01-10T05:04:36;22.95;;;9.00;;
12112;SDS011;6120;52.250;8.478;2024-01-10T05:07:03;18.27;;;8.05;;
12112;SDS011;6120;52.250;8.478;2024-01-10T05:09:30;18.55;;;8.18;;
12112;SDS011;6120;52.250;8.478;2024-01-10T05:11:57;20.30;;;8.77;;
12112;SDS011;6120;52.250;8.478;2024-01-10T05:14:23;23.83;;;8.82;;
12112;SDS011;6120;52.250;8.478;2024-01-10T05:16:50;23.63;;;8.40;;
12112;SDS011;6120;52.250;8.478;2024-01-10T05:19:18;22.27;;;8.38;;
12112;SDS011;6120;52.250;8.478;2024-01-10T05:21:44;22.25;;;9.10;;
12112;SDS011;6120;52.250;8.478;2024-01-10T05:24:11;21.27;;;8.35;;
12112;SDS011;6120;52.250;8.478;2024-01-10T05:26:39;20.95;;;8.93;;
12112;SDS011;6120;52.250;8.478;2024-01-10T05:29:05;20.65;;;9.13;;
12112;SDS011;6120;52.250;8.478;2024-01-10T05:31:32;26.63;;;8.60;;
12112;SDS011;6120;52.250;8.478;2024-01-10T05:33:59;28.67;;;8.77;;
12112;SDS011;6120;52.250;8.478;2024-01-10T05:36:25;22.13;;;8.23;;
12112;SDS011;6120;52.250;8.478;2024-01-10T05:38:52;26.00;;;9.48;;
12112;SDS011;6120;52.250;8.478;2024-01-10T05:41:19;26.70;;;8.77;;
12112;SDS011;6120;52.250;8.478;2024-01-10T05:43:46;26.50;;;8.48;;
12112;SDS011;6120;52.250;8.478;2024-01-10T05:46:12;26.02;;;9.90;;
12112;SDS011;6120;52.250;8.478;2024-01-10T05:48:39;20.77;;;8.25;;
12112;SDS011;6120;52.250;8.478;2024-01-10T05:51:06;21.25;;;8.95;;
12112;SDS011;6120;52.250;8.478;2024-01-10T05:53:32;21.08;;;8.27;;
12112;SDS011;6120;52.250;8.478;2024-01-10T05:55:59;19.10;;;7.68;;
12112;SDS011;6120;52.250;8.478;2024-01-10T05:58:27;23.45;;;9.25;;
12112;SDS011;6120;52.250;8.478;2024-01-10T06:00:53;24.52;;;9.05;;
12112;SDS011;6120;52.250;8.478;2024-01-10T06:03:20;22.90;;;9.05;;
12112;SDS011;6120;52.250;8.478;2024-01-10T06:05:47;21.08;;;8.52;;
12112;SDS011;6120;52.250;8.478;2024-01-10T06:08:13;18.25;;;7.35;;
12112;SDS011;6120;52.250;8.478;2024-01-10T06:10:40;20.00;;;7.88;;
12112;SDS011;6120;52.250;8.478;2024-01-10T06:13:07;21.15;;;8.80;;
12112;SDS011;6120;52.250;8.478;2024-01-10T06:15:34;19.40;;;8.88;;
12112;SDS011;6120;52.250;8.478;2024-01-10T06:18:00;19.85;;;8.35;;
12112;SDS011;6120;52.250;8.478;2024-01-10T06:20:28;21.27;;;8.10;;
12112;SDS011;6120;52.250;8.478;2024-01-10T06:22:54;22.17;;;8.23;;
12112;SDS011;6120;52.250;8.478;2024-01-10T06:25:21;19.10;;;8.73;;
12112;SDS011;6120;52.250;8.478;2024-01-10T06:27:48;18.27;;;7.78;;
12112;SDS011;6120;52.250;8.478;2024-01-10T06:30:15;23.05;;;9.15;;
12112;SDS011;6120;52.250;8.478;2024-01-10T06:32:42;25.50;;;8.13;;
12112;SDS011;6120;52.250;8.478;2024-01-10T06:35:09;19.77;;;7.72;;
12112;SDS011;6120;52.250;8.478;2024-01-10T06:37:37;16.17;;;7.13;;
12112;SDS011;6120;52.250;8.478;2024-01-10T06:40:04;19.08;;;8.18;;
12112;SDS011;6120;52.250;8.478;2024-01-10T06:42:32;20.10;;;8.27;;
12112;SDS011;6120;52.250;8.478;2024-01-10T06:44:59;19.30;;;8.40;;
12112;SDS011;6120;52.250;8.478;2024-01-10T06:47:26;22.67;;;8.00;;
12112;SDS011;6120;52.250;8.478;2024-01-10T06:49:53;17.10;;;7.28;;
12112;SDS011;6120;52.250;8.478;2024-01-10T06:52:20;24.73;;;8.77;;
12112;SDS011;6120;52.250;8.478;2024-01-10T06:54:46;21.50;;;8.45;;
12112;SDS011;6120;52.250;8.478;2024-01-10T06:57:13;20.88;;;8.65;;
12112;SDS011;6120;52.250;8.478;2024-01-10T06:59:40;20.85;;;8.20;;
12112;SDS011;6120;52.250;8.478;2024-01-10T07:02:06;21.05;;;8.55;;
12112;SDS011;6120;52.250;8.478;2024-01-10T07:04:36;21.55;;;8.48;;
12112;SDS011;6120;52.250;8.478;2024-01-10T07:07:03;20.85;;;8.18;;
12112;SDS011;6120;52.250;8.478;2024-01-10T07:09:30;23.70;;;9.35;;
12112;SDS011;6120;52.250;8.478;2024-01-10T07:11:57;19.73;;;8.85;;
12112;SDS011;6120;52.250;8.478;2024-01-10T07:14:24;25.58;;;9.80;;
12112;SDS011;6120;52.250;8.478;2024-01-10T07:16:50;31.95;;;9.77;;
12112;SDS011;6120;52.250;8.478;2024-01-10T07:19:18;21.75;;;9.15;;
12112;SDS011;6120;52.250;8.478;2024-01-10T07:21:45;22.05;;;9.00;;
12112;SDS011;6120;52.250;8.478;2024-01-10T07:24:11;25.35;;;9.38;;
12112;SDS011;6120;52.250;8.478;2024-01-10T07:26:38;22.70;;;9.20;;
12112;SDS011;6120;52.250;8.478;2024-01-10T07:29:05;19.27;;;8.70;;
12112;SDS011;6120;52.250;8.478;2024-01-10T07:31:35;22.98;;;8.73;;
12112;SDS011;6120;52.250;8.478;2024-01-10T07:34:04;23.08;;;8.43;;
12112;SDS011;6120;52.250;8.478;2024-01-10T07:36:36;24.55;;;9.85;;
12112;SDS011;6120;52.250;8.478;2024-01-10T07:39:09;22.48;;;9.02;;
12112;SDS011;6120;52.250;8.478;2024-01-10T07:41:35;25.02;;;9.48;;
12112;SDS011;6120;52.250;8.478;2024-01-10T07:44:02;22.20;;;9.00;;
12112;SDS011;6120;52.250;8.478;2024-01-10T07:46:29;24.67;;;10.93;;
12112;SDS011;6120;52.250;8.478;2024-01-10T07:48:56;24.60;;;10.25;;
12112;SDS011;6120;52.250;8.478;2024-01-10T07:51:23;18.48;;;8.68;;
12112;SDS011;6120;52.250;8.478;2024-01-10T07:53:50;22.10;;;9.30;;
12112;SDS011;6120;52.250;8.478;2024-01-10T07:56:16;26.50;;;10.68;;
12112;SDS011;6120;52.250;8.478;2024-01-10T07:58:46;25.60;;;9.48;;
12112;SDS011;6120;52.250;8.478;2024-01-10T08:01:13;21.55;;;9.73;;
12112;SDS011;6120;52.250;8.478;2024-01-10T08:03:41;22.55;;;9.52;;
12112;SDS011;6120;52.250;8.478;2024-01-10T08:06:07;25.80;;;10.13;;
12112;SDS011;6120;52.250;8.478;2024-01-10T08:08:48;23.92;;;10.27;;
12112;SDS011;6120;52.250;8.478;2024-01-10T08:11:16;27.05;;;9.40;;
12112;SDS011;6120;52.250;8.478;2024-01-10T08:13:42;23.67;;;9.90;;
12112;SDS011;6120;52.250;8.478;2024-01-10T08:16:09;23.25;;;9.80;;
12112;SDS011;6120;52.250;8.478;2024-01-10T08:18:38;25.45;;;10.38;;
12112;SDS011;6120;52.250;8.478;2024-01-10T08:21:05;22.40;;;9.95;;
12112;SDS011;6120;52.250;8.478;2024-01-10T08:23:33;25.75;;;10.85;;
12112;SDS011;6120;52.250;8.478;2024-01-10T08:25:59;27.17;;;10.18;;
12112;SDS011;6120;52.250;8.478;2024-01-10T08:28:26;26.75;;;10.73;;
12112;SDS011;6120;52.250;8.478;2024-01-10T08:30:53;24.77;;;10.27;;
12112;SDS011;6120;52.250;8.478;2024-01-10T08:33:30;26.45;;;10.05;;
12112;SDS011;6120;52.250;8.478;2024-01-10T08:35:57;27.60;;;10.82;;
12112;SDS011;6120;52.250;8.478;2024-01-10T08:38:25;30.20;;;11.13;;
12112;SDS011;6120;52.250;8.478;2024-01-10T08:40:52;26.70;;;10.48;;
12112;SDS011;6120;52.250;8.478;2024-01-10T08:43:19;27.17;;;10.63;;
12112;SDS011;6120;52.250;8.478;2024-01-10T08:45:46;27.25;;;10.05;;
12112;SDS011;6120;52.250;8.478;2024-01-10T08:48:13;27.98;;;10.75;;
12112;SDS011;6120;52.250;8.478;2024-01-10T08:50:40;27.58;;;10.02;;
12112;SDS011;6120;52.250;8.478;2024-01-10T08:53:07;26.40;;;10.10;;
12112;SDS011;6120;52.250;8.478;2024-01-10T08:55:34;26.92;;;10.52;;
12112;SDS011;6120;52.250;8.478;2024-01-10T08:58:03;27.20;;;10.45;;
12112;SDS011;6120;52.250;8.478;2024-01-10T09:00:30;24.50;;;10.02;;
12112;SDS011;6120;52.250;8.478;2024-01-10T09:02:58;23.35;;;10.63;;
12112;SDS011;6120;52.250;8.478;2024-01-10T09:05:24;31.00;;;10.65;;
12112;SDS011;6120;52.250;8.478;2024-01-10T09:07:51;29.67;;;11.20;;
12112;SDS011;6120;52.250;8.478;2024-01-10T09:10:20;26.98;;;10.52;;
12112;SDS011;6120;52.250;8.478;2024-01-10T09:12:49;31.20;;;11.45;;
12112;SDS011;6120;52.250;8.478;2024-01-10T09:15:16;24.35;;;9.88;;
12112;SDS011;6120;52.250;8.478;2024-01-10T09:17:43;29.60;;;11.13;;
12112;SDS011;6120;52.250;8.478;2024-01-10T09:20:11;27.00;;;12.05;;
12112;SDS011;6120;52.250;8.478;2024-01-10T09:22:38;30.00;;;10.77;;
12112;SDS011;6120;52.250;8.478;2024-01-10T09:25:06;25.27;;;11.13;;
12112;SDS011;6120;52.250;8.478;2024-01-10T09:27:33;26.27;;;10.18;;
12112;SDS011;6120;52.250;8.478;2024-01-10T09:30:00;27.58;;;10.75;;
12112;SDS011;6120;52.250;8.478;2024-01-10T09:32:34;26.52;;;10.80;;
12112;SDS011;6120;52.250;8.478;2024-01-10T09:35:02;28.67;;;11.40;;
12112;SDS011;6120;52.250;8.478;2024-01-10T09:37:29;24.15;;;10.52;;
12112;SDS011;6120;52.250;8.478;2024-01-10T09:39:56;27.40;;;10.38;;
12112;SDS011;6120;52.250;8.478;2024-01-10T09:42:23;26.42;;;10.98;;
12112;SDS011;6120;52.250;8.478;2024-01-10T09:44:52;26.00;;;10.90;;
12112;SDS011;6120;52.250;8.478;2024-01-10T09:47:19;26.17;;;11.60;;
12112;SDS011;6120;52.250;8.478;2024-01-10T09:49:47;30.70;;;11.98;;
12112;SDS011;6120;52.250;8.478;2024-01-10T09:52:16;31.10;;;11.07;;
12112;SDS011;6120;52.250;8.478;2024-01-10T09:54:53;30.38;;;11.77;;
12112;SDS011;6120;52.250;8.478;2024-01-10T09:57:22;31.35;;;11.63;;
12112;SDS011;6120;52.250;8.478;2024-01-10T09:59:50;26.83;;;11.80;;
12112;SDS011;6120;52.250;8.478;2024-01-10T10:02:21;28.02;;;11.88;;
12112;SDS011;6120;52.250;8.478;2024-01-10T10:04:54;27.25;;;11.45;;
12112;SDS011;6120;52.250;8.478;2024-01-10T10:07:25;28.52;;;11.68;;
12112;SDS011;6120;52.250;8.478;2024-01-10T10:09:52;28.23;;;11.55;;
12112;SDS011;6120;52.250;8.478;2024-01-10T10:12:23;23.58;;;11.00;;
12112;SDS011;6120;52.250;8.478;2024-01-10T10:15:24;28.88;;;11.02;;
12112;SDS011;6120;52.250;8.478;2024-01-10T10:17:54;28.25;;;10.77;;
12112;SDS011;6120;52.250;8.478;2024-01-10T10:20:22;27.73;;;10.73;;
12112;SDS011;6120;52.250;8.478;2024-01-10T10:25:31;31.02;;;12.13;;
12112;SDS011;6120;52.250;8.478;2024-01-10T10:28:04;26.52;;;11.55;;
12112;SDS011;6120;52.250;8.478;2024-01-10T10:33:01;30.05;;;11.77;;
12112;SDS011;6120;52.250;8.478;2024-01-10T10:35:28;28.00;;;11.00;;
12112;SDS011;6120;52.250;8.478;2024-01-10T10:38:07;34.28;;;12.35;;
12112;SDS011;6120;52.250;8.478;2024-01-10T10:40:35;30.08;;;12.35;;
12112;SDS011;6120;52.250;8.478;2024-01-10T10:43:02;31.40;;;12.30;;
12112;SDS011;6120;52.250;8.478;2024-01-10T10:47:57;30.38;;;11.55;;
12112;SDS011;6120;52.250;8.478;2024-01-10T10:50:27;27.98;;;11.23;;
12112;SDS011;6120;52.250;8.478;2024-01-10T10:52:55;35.90;;;14.27;;
12112;SDS011;6120;52.250;8.478;2024-01-10T10:55:22;30.05;;;12.02;;
12112;SDS011;6120;52.250;8.478;2024-01-10T10:57:50;34.55;;;12.65;;
12112;SDS011;6120;52.250;8.478;2024-01-10T11:00:30;28.60;;;11.20;;
12112;SDS011;6120;52.250;8.478;2024-01-10T11:02:57;31.08;;;12.70;;
12112;SDS011;6120;52.250;8.478;2024-01-10T11:05:25;29.80;;;12.20;;
12112;SDS011;6120;52.250;8.478;2024-01-10T11:07:52;31.52;;;12.18;;
12112;SDS011;6120;52.250;8.478;2024-01-10T11:10:30;32.20;;;12.45;;
12112;SDS011;6120;52.250;8.478;2024-01-10T11:21:24;32.08;;;11.73;;
12112;SDS011;6120;52.250;8.478;2024-01-10T11:24:13;33.10;;;12.40;;
12112;SDS011;6120;52.250;8.478;2024-01-10T11:26:40;31.83;;;12.70;;
12112;SDS011;6120;52.250;8.478;2024-01-10T11:29:07;32.00;;;12.57;;
12112;SDS011;6120;52.250;8.478;2024-01-10T11:31:35;33.42;;;13.77;;
12112;SDS011;6120;52.250;8.478;2024-01-10T11:34:05;34.13;;;14.05;;
12112;SDS011;6120;52.250;8.478;2024-01-10T11:36:32;39.53;;;12.82;;
12112;SDS011;6120;52.250;8.478;2024-01-10T11:38:59;30.73;;;12.52;;
12112;SDS011;6120;52.250;8.478;2024-01-10T11:41:29;29.48;;;12.95;;
12112;SDS011;6120;52.250;8.478;2024-01-10T11:46:40;36.10;;;14.43;;
12112;SDS011;6120;52.250;8.478;2024-01-10T11:49:20;34.63;;;12.85;;
12112;SDS011;6120;52.250;8.478;2024-01-10T11:51:48;35.50;;;13.35;;
12112;SDS011;6120;52.250;8.478;2024-01-10T11:54:35;39.15;;;13.98;;
12112;SDS011;6120;52.250;8.478;2024-01-10T11:57:14;34.28;;;12.88;;
12112;SDS011;6120;52.250;8.478;2024-01-10T11:59:43;32.67;;;12.70;;
12112;SDS011;6120;52.250;8.478;2024-01-10T12:02:14;28.65;;;12.05;;
12112;SDS011;6120;52.250;8.478;2024-01-10T12:07:12;32.80;;;12.05;;
12112;SDS011;6120;52.250;8.478;2024-01-10T12:09:40;34.28;;;12.40;;
12112;SDS011;6120;52.250;8.478;2024-01-10T12:12:08;33.22;;;12.77;;
12112;SDS011;6120;52.250;8.478;2024-01-10T12:14:37;34.03;;;12.57;;
12112;SDS011;6120;52.250;8.478;2024-01-10T12:17:06;33.42;;;12.55;;
12112;SDS011;6120;52.250;8.478;2024-01-10T12:19:35;28.88;;;12.55;;
12112;SDS011;6120;52.250;8.478;2024-01-10T12:22:04;33.58;;;14.73;;
12112;SDS011;6120;52.250;8.478;2024-01-10T12:24:34;32.90;;;12.43;;
12112;SDS011;6120;52.250;8.478;2024-01-10T12:27:00;29.80;;;12.82;;
12112;SDS011;6120;52.250;8.478;2024-01-10T12:29:29;31.63;;;13.57;;
12112;SDS011;6120;52.250;8.478;2024-01-10T12:31:56;32.88;;;12.95;;
12112;SDS011;6120;52.250;8.478;2024-01-10T12:34:23;32.85;;;13.05;;
12112;SDS011;6120;52.250;8.478;2024-01-10T12:36:54;32.50;;;12.50;;
12112;SDS011;6120;52.250;8.478;2024-01-10T12:39:21;34.60;;;13.10;;
12112;SDS011;6120;52.250;8.478;2024-01-10T12:41:50;32.33;;;13.23;;
12112;SDS011;6120;52.250;8.478;2024-01-10T12:44:17;29.85;;;12.40;;
12112;SDS011;6120;52.250;8.478;2024-01-10T12:46:50;34.83;;;12.80;;
12112;SDS011;6120;52.250;8.478;2024-01-10T12:49:18;37.50;;;14.38;;
12112;SDS011;6120;52.250;8.478;2024-01-10T12:51:46;30.52;;;13.65;;
12112;SDS011;6120;52.250;8.478;2024-01-10T12:54:14;32.50;;;13.70;;
12112;SDS011;6120;52.250;8.478;2024-01-10T12:59:08;33.92;;;12.82;;
12112;SDS011;6120;52.250;8.478;2024-01-10T13:01:36;34.33;;;13.55;;
12112;SDS011;6120;52.250;8.478;2024-01-10T13:04:03;35.08;;;14.38;;
12112;SDS011;6120;52.250;8.478;2024-01-10T13:06:34;34.75;;;12.60;;
12112;SDS011;6120;52.250;8.478;2024-01-10T13:09:01;31.30;;;13.30;;
12112;SDS011;6120;52.250;8.478;2024-01-10T13:11:28;29.10;;;12.18;;
12112;SDS011;6120;52.250;8.478;2024-01-10T13:13:56;36.15;;;13.10;;
12112;SDS011;6120;52.250;8.478;2024-01-10T13:16:23;30.40;;;13.55;;
12112;SDS011;6120;52.250;8.478;2024-01-10T13:18:51;35.00;;;14.75;;
12112;SDS011;6120;52.250;8.478;2024-01-10T13:21:20;30.92;;;13.73;;
12112;SDS011;6120;52.250;8.478;2024-01-10T13:23:47;30.05;;;12.70;;
12112;SDS011;6120;52.250;8.478;2024-01-10T13:26:13;33.80;;;13.05;;
12112;SDS011;6120;52.250;8.478;2024-01-10T13:28:41;31.63;;;13.13;;
12112;SDS011;6120;52.250;8.478;2024-01-10T13:31:08;33.13;;;13.98;;
12112;SDS011;6120;52.250;8.478;2024-01-10T13:33:36;30.98;;;12.60;;
12112;SDS011;6120;52.250;8.478;2024-01-10T13:36:11;32.13;;;13.00;;
12112;SDS011;6120;52.250;8.478;2024-01-10T13:38:37;33.90;;;13.20;;
12112;SDS011;6120;52.250;8.478;2024-01-10T13:41:04;30.27;;;13.30;;
12112;SDS011;6120;52.250;8.478;2024-01-10T13:43:31;34.63;;;13.33;;
12112;SDS011;6120;52.250;8.478;2024-01-10T13:45:58;32.67;;;12.88;;
12112;SDS011;6120;52.250;8.478;2024-01-10T13:48:25;30.70;;;13.48;;
12112;SDS011;6120;52.250;8.478;2024-01-10T13:50:52;34.38;;;13.88;;
12112;SDS011;6120;52.250;8.478;2024-01-10T13:53:18;36.15;;;13.27;;
12112;SDS011;6120;52.250;8.478;2024-01-10T13:55:45;34.80;;;14.18;;
12112;SDS011;6120;52.250;8.478;2024-01-10T13:58:12;33.30;;;13.90;;
12112;SDS011;6120;52.250;8.478;2024-01-10T14:00:39;29.65;;;12.48;;
12112;SDS011;6120;52.250;8.478;2024-01-10T14:03:10;28.17;;;13.48;;
12112;SDS011;6120;52.250;8.478;2024-01-10T14:05:43;34.00;;;13.65;;
12112;SDS011;6120;52.250;8.478;2024-01-10T14:08:10;34.05;;;14.73;;
12112;SDS011;6120;52.250;8.478;2024-01-10T14:10:37;27.25;;;12.88;;
12112;SDS011;6120;52.250;8.478;2024-01-10T14:13:05;28.52;;;12.82;;
12112;SDS011;6120;52.250;8.478;2024-01-10T14:15:33;34.73;;;13.33;;
12112;SDS011;6120;52.250;8.478;2024-01-10T14:18:00;30.20;;;12.88;;
12112;SDS011;6120;52.250;8.478;2024-01-10T14:20:27;28.65;;;13.23;;
12112;SDS011;6120;52.250;8.478;2024-01-10T14:22:54;32.83;;;13.48;;
12112;SDS011;6120;52.250;8.478;2024-01-10T14:25:20;31.65;;;14.15;;
12112;SDS011;6120;52.250;8.478;2024-01-10T14:27:47;29.30;;;13.07;;
12112;SDS011;6120;52.250;8.478;2024-01-10T14:30:14;38.33;;;14.63;;
12112;SDS011;6120;52.250;8.478;2024-01-10T14:32:42;30.45;;;14.35;;
12112;SDS011;6120;52.250;8.478;2024-01-10T14:35:09;29.60;;;13.70;;
12112;SDS011;6120;52.250;8.478;2024-01-10T14:37:37;29.93;;;13.30;;
12112;SDS011;6120;52.250;8.478;2024-01-10T14:40:03;30.65;;;12.85;;
12112;SDS011;6120;52.250;8.478;2024-01-10T14:42:33;32.75;;;13.60;;
12112;SDS011;6120;52.250;8.478;2024-01-10T14:45:00;28.10;;;11.90;;
12112;SDS011;6120;52.250;8.478;2024-01-10T14:47:27;34.85;;;13.98;;
12112;SDS011;6120;52.250;8.478;2024-01-10T14:49:55;29.23;;;12.57;;
12112;SDS011;6120;52.250;8.478;2024-01-10T14:52:25;34.78;;;13.40;;
12112;SDS011;6120;52.250;8.478;2024-01-10T14:54:52;32.97;;;13.00;;
12112;SDS011;6120;52.250;8.478;2024-01-10T14:57:19;32.73;;;13.80;;
12112;SDS011;6120;52.250;8.478;2024-01-10T14:59:46;33.20;;;13.07;;
12112;SDS011;6120;52.250;8.478;2024-01-10T15:02:14;26.75;;;12.27;;
12112;SDS011;6120;52.250;8.478;2024-01-10T15:04:42;34.22;;;15.07;;
12112;SDS011;6120;52.250;8.478;2024-01-10T15:07:10;28.95;;;13.15;;
12112;SDS011;6120;52.250;8.478;2024-01-10T15:09:37;31.13;;;13.45;;